sensor_id;sensor_type;location;lat;lon;timestamp;P1;durP1;ratioP1;P2;durP2;ratioP2
24163;SDS011;12319;49.204;8.116;2023-05-16T00:00:52;8.10;;;5.68;;
24163;SDS011;12319;49.204;8.116;2023-05-16T00:03:18;8.05;;;5.63;;
24163;SDS011;12319;49.204;8.116;2023-05-16T00:05:44;8.90;;;5.93;;
24163;SDS011;12319;49.204;8.116;2023-05-16T00:08:10;7.90;;;5.65;;
24163;SDS011;12319;49.204;8.116;2023-05-16T00:10:36;9.18;;;6.28;;
24163;SDS011;12319;49.204;8.116;2023-05-16T00:13:02;10.20;;;7.00;;
24163;SDS011;12319;49.204;8.116;2023-05-16T00:15:28;9.55;;;6.60;;
24163;SDS011;12319;49.204;8.116;2023-05-16T00:17:54;10.38;;;7.13;;
24163;SDS011;12319;49.204;8.116;2023-05-16T00:20:26;10.48;;;6.70;;
24163;SDS011;12319;49.204;8.116;2023-05-16T00:22:52;9.95;;;6.68;;
24163;SDS011;12319;49.204;8.116;2023-05-16T00:25:19;10.05;;;7.03;;
24163;SDS011;12319;49.204;8.116;2023-05-16T00:27:44;9.93;;;6.53;;
24163;SDS011;12319;49.204;8.116;2023-05-16T00:30:10;9.00;;;6.67;;
24163;SDS011;12319;49.204;8.116;2023-05-16T00:32:36;12.15;;;6.95;;
24163;SDS011;12319;49.204;8.116;2023-05-16T00:35:02;10.90;;;7.00;;
24163;SDS011;12319;49.204;8.116;2023-05-16T00:37:28;10.63;;;5.97;;
24163;SDS011;12319;49.204;8.116;2023-05-16T00:39:53;8.83;;;5.90;;
24163;SDS011;12319;49.204;8.116;2023-05-16T00:42:19;8.85;;;5.97;;
24163;SDS011;12319;49.204;8.116;2023-05-16T00:44:45;8.97;;;6.07;;
24163;SDS011;12319;49.204;8.116;2023-05-16T00:47:11;8.80;;;6.30;;
24163;SDS011;12319;49.204;8.116;2023-05-16T00:49:37;10.40;;;6.75;;
24163;SDS011;12319;49.204;8.116;2023-05-16T00:52:03;8.60;;;6.17;;
24163;SDS011;12319;49.204;8.116;2023-05-16T00:54:29;9.38;;;6.60;;
24163;SDS011;12319;49.204;8.116;2023-05-16T00:56:55;8.90;;;6.05;;
24163;SDS011;12319;49.204;8.116;2023-05-16T00:59:22;9.25;;;6.22;;
24163;SDS011;12319;49.204;8.116;2023-05-16T01:01:48;9.90;;;7.03;;
24163;SDS011;12319;49.204;8.116;2023-05-16T01:04:15;11.30;;;6.60;;
24163;SDS011;12319;49.204;8.116;2023-05-16T01:06:41;11.15;;;7.47;;
24163;SDS011;12319;49.204;8.116;2023-05-16T01:09:07;11.50;;;7.18;;
24163;SDS011;12319;49.204;8.116;2023-05-16T01:11:45;10.80;;;6.70;;
24163;SDS011;12319;49.204;8.116;2023-05-16T01:28:04;9.65;;;6.45;;
24163;SDS011;12319;49.204;8.116;2023-05-16T01:30:36;9.80;;;6.53;;
24163;SDS011;12319;49.204;8.116;2023-05-16T01:33:05;10.27;;;6.63;;
24163;SDS011;12319;49.204;8.116;2023-05-16T01:35:31;9.43;;;6.32;;
24163;SDS011;12319;49.204;8.116;2023-05-16T01:40:31;8.45;;;5.88;;
24163;SDS011;12319;49.204;8.116;2023-05-16T01:43:03;9.80;;;5.97;;
24163;SDS011;12319;49.204;8.116;2023-05-16T01:45:34;8.35;;;6.03;;
24163;SDS011;12319;49.204;8.116;2023-05-16T01:48:04;8.57;;;6.03;;
24163;SDS011;12319;49.204;8.116;2023-05-16T01:50:38;7.65;;;5.78;;
24163;SDS011;12319;49.204;8.116;2023-05-16T01:53:11;9.00;;;6.32;;
24163;SDS011;12319;49.204;8.116;2023-05-16T01:55:45;9.88;;;6.32;;
24163;SDS011;12319;49.204;8.116;2023-05-16T01:58:12;9.18;;;6.28;;
24163;SDS011;12319;49.204;8.116;2023-05-16T02:00:40;8.82;;;6.07;;
24163;SDS011;12319;49.204;8.116;2023-05-16T02:03:06;8.48;;;6.22;;
24163;SDS011;12319;49.204;8.116;2023-05-16T02:05:32;8.60;;;5.53;;
24163;SDS011;12319;49.204;8.116;2023-05-16T02:07:58;10.85;;;6.03;;
24163;SDS011;12319;49.204;8.116;2023-05-16T02:10:24;8.27;;;5.20;;
24163;SDS011;12319;49.204;8.116;2023-05-16T02:12:50;8.68;;;5.75;;
24163;SDS011;12319;49.204;8.116;2023-05-16T02:15:16;8.80;;;5.85;;
24163;SDS011;12319;49.204;8.116;2023-05-16T02:17:42;8.40;;;5.63;;
24163;SDS011;12319;49.204;8.116;2023-05-16T02:20:08;8.50;;;6.07;;
24163;SDS011;12319;49.204;8.116;2023-05-16T02:22:34;8.40;;;5.97;;
24163;SDS011;12319;49.204;8.116;2023-05-16T02:25:01;8.18;;;5.47;;
24163;SDS011;12319;49.204;8.116;2023-05-16T02:27:27;8.60;;;5.60;;
24163;SDS011;12319;49.204;8.116;2023-05-16T02:29:53;8.35;;;5.22;;
24163;SDS011;12319;49.204;8.116;2023-05-16T02:32:19;8.50;;;5.80;;
24163;SDS011;12319;49.204;8.116;2023-05-16T02:34:45;8.80;;;5.93;;
24163;SDS011;12319;49.204;8.116;2023-05-16T02:37:10;8.30;;;5.80;;
24163;SDS011;12319;49.204;8.116;2023-05-16T02:39:36;8.43;;;5.73;;
24163;SDS011;12319;49.204;8.116;2023-05-16T02:42:02;8.40;;;6.10;;
24163;SDS011;12319;49.204;8.116;2023-05-16T02:44:28;8.48;;;5.95;;
24163;SDS011;12319;49.204;8.116;2023-05-16T02:46:53;8.23;;;5.50;;
24163;SDS011;12319;49.204;8.116;2023-05-16T02:49:19;8.20;;;5.97;;
24163;SDS011;12319;49.204;8.116;2023-05-16T02:51:44;8.53;;;5.80;;
24163;SDS011;12319;49.204;8.116;2023-05-16T02:54:11;7.50;;;5.28;;
24163;SDS011;12319;49.204;8.116;2023-05-16T02:56:36;8.40;;;5.87;;
24163;SDS011;12319;49.204;8.116;2023-05-16T02:59:02;8.18;;;5.80;;
24163;SDS011;12319;49.204;8.116;2023-05-16T03:01:28;9.40;;;5.72;;
24163;SDS011;12319;49.204;8.116;2023-05-16T03:03:54;8.00;;;5.50;;
24163;SDS011;12319;49.204;8.116;2023-05-16T03:06:20;7.00;;;4.95;;
24163;SDS011;12319;49.204;8.116;2023-05-16T03:08:45;7.43;;;5.47;;
24163;SDS011;12319;49.204;8.116;2023-05-16T03:11:11;8.30;;;5.63;;
24163;SDS011;12319;49.204;8.116;2023-05-16T03:13:37;7.50;;;5.25;;
24163;SDS011;12319;49.204;8.116;2023-05-16T03:16:02;7.43;;;5.50;;
24163;SDS011;12319;49.204;8.116;2023-05-16T03:18:28;7.65;;;5.15;;
24163;SDS011;12319;49.204;8.116;2023-05-16T03:20:54;7.63;;;5.57;;
24163;SDS011;12319;49.204;8.116;2023-05-16T03:23:20;7.00;;;4.85;;
24163;SDS011;12319;49.204;8.116;2023-05-16T03:25:45;7.13;;;5.10;;
24163;SDS011;12319;49.204;8.116;2023-05-16T03:28:11;6.55;;;4.93;;
24163;SDS011;12319;49.204;8.116;2023-05-16T03:30:37;8.47;;;5.53;;
24163;SDS011;12319;49.204;8.116;2023-05-16T03:33:02;7.47;;;5.05;;
24163;SDS011;12319;49.204;8.116;2023-05-16T03:35:29;7.67;;;5.60;;
24163;SDS011;12319;49.204;8.116;2023-05-16T03:37:55;7.20;;;5.38;;
24163;SDS011;12319;49.204;8.116;2023-05-16T03:40:21;7.80;;;5.50;;
24163;SDS011;12319;49.204;8.116;2023-05-16T03:42:47;6.80;;;5.15;;
24163;SDS011;12319;49.204;8.116;2023-05-16T03:45:12;7.23;;;4.83;;
24163;SDS011;12319;49.204;8.116;2023-05-16T03:47:38;7.32;;;5.53;;
24163;SDS011;12319;49.204;8.116;2023-05-16T03:50:04;8.47;;;5.17;;
24163;SDS011;12319;49.204;8.116;2023-05-16T03:52:30;6.82;;;5.25;;
24163;SDS011;12319;49.204;8.116;2023-05-16T03:54:56;7.03;;;5.30;;
24163;SDS011;12319;49.204;8.116;2023-05-16T03:57:21;7.63;;;4.50;;
24163;SDS011;12319;49.204;8.116;2023-05-16T03:59:47;6.67;;;4.80;;
24163;SDS011;12319;49.204;8.116;2023-05-16T04:02:12;7.38;;;5.38;;
24163;SDS011;12319;49.204;8.116;2023-05-16T04:04:38;7.45;;;5.30;;
24163;SDS011;12319;49.204;8.116;2023-05-16T04:07:03;7.37;;;5.30;;
24163;SDS011;12319;49.204;8.116;2023-05-16T04:09:30;7.95;;;5.45;;
24163;SDS011;12319;49.204;8.116;2023-05-16T04:11:56;7.73;;;5.97;;
24163;SDS011;12319;49.204;8.116;2023-05-16T04:14:22;7.55;;;5.30;;
24163;SDS011;12319;49.204;8.116;2023-05-16T04:16:48;7.40;;;5.33;;
24163;SDS011;12319;49.204;8.116;2023-05-16T04:19:13;7.47;;;5.70;;
24163;SDS011;12319;49.204;8.116;2023-05-16T04:21:39;7.93;;;5.03;;
24163;SDS011;12319;49.204;8.116;2023-05-16T04:24:05;7.88;;;5.43;;
24163;SDS011;12319;49.204;8.116;2023-05-16T04:26:31;8.63;;;4.93;;
24163;SDS011;12319;49.204;8.116;2023-05-16T04:28:56;9.15;;;4.80;;
24163;SDS011;12319;49.204;8.116;2023-05-16T04:31:22;7.60;;;4.70;;
24163;SDS011;12319;49.204;8.116;2023-05-16T04:33:49;6.75;;;4.90;;
24163;SDS011;12319;49.204;8.116;2023-05-16T04:36:14;7.23;;;5.50;;
24163;SDS011;12319;49.204;8.116;2023-05-16T04:38:40;8.68;;;5.53;;
24163;SDS011;12319;49.204;8.116;2023-05-16T04:41:06;7.70;;;5.45;;
24163;SDS011;12319;49.204;8.116;2023-05-16T04:43:32;6.67;;;5.30;;
24163;SDS011;12319;49.204;8.116;2023-05-16T04:45:58;7.63;;;5.40;;
24163;SDS011;12319;49.204;8.116;2023-05-16T04:48:23;7.40;;;5.38;;
24163;SDS011;12319;49.204;8.116;2023-05-16T04:50:49;6.30;;;4.87;;
24163;SDS011;12319;49.204;8.116;2023-05-16T04:53:15;9.77;;;5.85;;
24163;SDS011;12319;49.204;8.116;2023-05-16T04:55:40;7.60;;;5.50;;
24163;SDS011;12319;49.204;8.116;2023-05-16T04:58:06;7.38;;;5.38;;
24163;SDS011;12319;49.204;8.116;2023-05-16T05:00:32;7.57;;;5.10;;
24163;SDS011;12319;49.204;8.116;2023-05-16T05:02:58;7.60;;;5.07;;
24163;SDS011;12319;49.204;8.116;2023-05-16T05:05:23;7.60;;;5.40;;
24163;SDS011;12319;49.204;8.116;2023-05-16T05:07:49;7.00;;;4.97;;
24163;SDS011;12319;49.204;8.116;2023-05-16T05:10:14;8.40;;;5.60;;
24163;SDS011;12319;49.204;8.116;2023-05-16T05:12:40;7.40;;;5.37;;
24163;SDS011;12319;49.204;8.116;2023-05-16T05:15:05;7.93;;;5.53;;
24163;SDS011;12319;49.204;8.116;2023-05-16T05:17:31;7.40;;;5.27;;
24163;SDS011;12319;49.204;8.116;2023-05-16T05:19:57;9.68;;;5.80;;
24163;SDS011;12319;49.204;8.116;2023-05-16T05:22:22;6.93;;;5.27;;
24163;SDS011;12319;49.204;8.116;2023-05-16T05:24:48;7.67;;;6.13;;
24163;SDS011;12319;49.204;8.116;2023-05-16T05:27:13;8.60;;;5.60;;
24163;SDS011;12319;49.204;8.116;2023-05-16T05:29:39;8.23;;;6.03;;
24163;SDS011;12319;49.204;8.116;2023-05-16T05:32:05;8.45;;;5.65;;
24163;SDS011;12319;49.204;8.116;2023-05-16T05:34:31;7.75;;;5.70;;
24163;SDS011;12319;49.204;8.116;2023-05-16T05:36:57;8.07;;;5.57;;
24163;SDS011;12319;49.204;8.116;2023-05-16T05:39:23;8.90;;;5.80;;
24163;SDS011;12319;49.204;8.116;2023-05-16T05:41:49;8.07;;;5.80;;
24163;SDS011;12319;49.204;8.116;2023-05-16T05:44:15;8.10;;;5.37;;
24163;SDS011;12319;49.204;8.116;2023-05-16T05:46:40;8.77;;;6.18;;
24163;SDS011;12319;49.204;8.116;2023-05-16T05:49:06;7.15;;;5.40;;
24163;SDS011;12319;49.204;8.116;2023-05-16T05:51:32;7.73;;;5.40;;
24163;SDS011;12319;49.204;8.116;2023-05-16T05:53:57;6.90;;;4.90;;
24163;SDS011;12319;49.204;8.116;2023-05-16T05:56:23;8.48;;;5.38;;
24163;SDS011;12319;49.204;8.116;2023-05-16T05:58:49;6.80;;;5.17;;
24163;SDS011;12319;49.204;8.116;2023-05-16T06:01:15;6.55;;;4.95;;
24163;SDS011;12319;49.204;8.116;2023-05-16T06:03:41;7.30;;;4.87;;
24163;SDS011;12319;49.204;8.116;2023-05-16T06:06:07;6.07;;;4.57;;
24163;SDS011;12319;49.204;8.116;2023-05-16T06:08:33;6.32;;;4.65;;
24163;SDS011;12319;49.204;8.116;2023-05-16T06:10:58;6.83;;;4.70;;
24163;SDS011;12319;49.204;8.116;2023-05-16T06:13:24;6.15;;;4.70;;
24163;SDS011;12319;49.204;8.116;2023-05-16T06:15:50;7.47;;;4.93;;
24163;SDS011;12319;49.204;8.116;2023-05-16T06:18:17;6.60;;;4.90;;
24163;SDS011;12319;49.204;8.116;2023-05-16T06:20:42;6.05;;;4.28;;
24163;SDS011;12319;49.204;8.116;2023-05-16T06:23:08;6.03;;;4.43;;
24163;SDS011;12319;49.204;8.116;2023-05-16T06:25:33;6.17;;;4.53;;
24163;SDS011;12319;49.204;8.116;2023-05-16T06:27:59;6.40;;;4.55;;
24163;SDS011;12319;49.204;8.116;2023-05-16T06:30:24;5.40;;;4.00;;
24163;SDS011;12319;49.204;8.116;2023-05-16T06:32:50;5.40;;;4.03;;
24163;SDS011;12319;49.204;8.116;2023-05-16T06:35:16;5.65;;;4.10;;
24163;SDS011;12319;49.204;8.116;2023-05-16T06:37:41;5.57;;;4.07;;
24163;SDS011;12319;49.204;8.116;2023-05-16T06:40:07;6.38;;;4.28;;
24163;SDS011;12319;49.204;8.116;2023-05-16T06:42:33;5.68;;;4.28;;
24163;SDS011;12319;49.204;8.116;2023-05-16T06:44:58;5.25;;;4.03;;
24163;SDS011;12319;49.204;8.116;2023-05-16T06:47:24;5.23;;;3.73;;
24163;SDS011;12319;49.204;8.116;2023-05-16T06:49:49;5.20;;;4.07;;
24163;SDS011;12319;49.204;8.116;2023-05-16T06:52:15;6.38;;;4.30;;
24163;SDS011;12319;49.204;8.116;2023-05-16T06:54:41;4.97;;;4.17;;
24163;SDS011;12319;49.204;8.116;2023-05-16T06:57:06;4.80;;;3.78;;
24163;SDS011;12319;49.204;8.116;2023-05-16T06:59:35;4.75;;;3.67;;
24163;SDS011;12319;49.204;8.116;2023-05-16T07:02:00;5.17;;;3.73;;
24163;SDS011;12319;49.204;8.116;2023-05-16T07:04:26;4.50;;;3.25;;
24163;SDS011;12319;49.204;8.116;2023-05-16T07:06:52;5.50;;;3.70;;
24163;SDS011;12319;49.204;8.116;2023-05-16T07:09:18;4.47;;;3.40;;
24163;SDS011;12319;49.204;8.116;2023-05-16T07:11:44;5.50;;;4.00;;
24163;SDS011;12319;49.204;8.116;2023-05-16T07:14:10;5.38;;;3.92;;
24163;SDS011;12319;49.204;8.116;2023-05-16T07:16:36;4.60;;;3.63;;
24163;SDS011;12319;49.204;8.116;2023-05-16T07:19:01;4.88;;;3.80;;
24163;SDS011;12319;49.204;8.116;2023-05-16T07:21:27;4.93;;;3.80;;
24163;SDS011;12319;49.204;8.116;2023-05-16T07:23:53;4.63;;;3.60;;
24163;SDS011;12319;49.204;8.116;2023-05-16T07:26:21;4.30;;;3.10;;
24163;SDS011;12319;49.204;8.116;2023-05-16T07:28:48;4.40;;;3.42;;
24163;SDS011;12319;49.204;8.116;2023-05-16T07:31:14;4.43;;;3.45;;
24163;SDS011;12319;49.204;8.116;2023-05-16T07:33:41;4.60;;;3.17;;
24163;SDS011;12319;49.204;8.116;2023-05-16T07:36:06;4.67;;;3.47;;
24163;SDS011;12319;49.204;8.116;2023-05-16T07:38:32;4.43;;;3.42;;
24163;SDS011;12319;49.204;8.116;2023-05-16T07:40:58;4.23;;;3.17;;
24163;SDS011;12319;49.204;8.116;2023-05-16T07:43:24;4.60;;;3.42;;
24163;SDS011;12319;49.204;8.116;2023-05-16T07:45:50;4.07;;;3.10;;
24163;SDS011;12319;49.204;8.116;2023-05-16T07:48:16;4.20;;;3.22;;
24163;SDS011;12319;49.204;8.116;2023-05-16T07:50:42;4.40;;;3.30;;
24163;SDS011;12319;49.204;8.116;2023-05-16T07:53:08;4.40;;;3.50;;
24163;SDS011;12319;49.204;8.116;2023-05-16T07:55:33;4.50;;;3.40;;
24163;SDS011;12319;49.204;8.116;2023-05-16T07:57:59;4.50;;;3.43;;
24163;SDS011;12319;49.204;8.116;2023-05-16T08:00:25;4.85;;;3.10;;
24163;SDS011;12319;49.204;8.116;2023-05-16T08:02:50;4.50;;;3.47;;
24163;SDS011;12319;49.204;8.116;2023-05-16T08:05:16;4.60;;;3.72;;
24163;SDS011;12319;49.204;8.116;2023-05-16T08:07:41;4.57;;;3.30;;
24163;SDS011;12319;49.204;8.116;2023-05-16T08:10:07;4.50;;;3.60;;
24163;SDS011;12319;49.204;8.116;2023-05-16T08:12:33;4.53;;;3.70;;
24163;SDS011;12319;49.204;8.116;2023-05-16T08:14:58;5.47;;;3.70;;
24163;SDS011;12319;49.204;8.116;2023-05-16T08:17:24;4.40;;;3.38;;
24163;SDS011;12319;49.204;8.116;2023-05-16T08:19:49;4.33;;;3.30;;
24163;SDS011;12319;49.204;8.116;2023-05-16T08:22:15;4.33;;;3.30;;
24163;SDS011;12319;49.204;8.116;2023-05-16T08:24:40;4.77;;;3.57;;
24163;SDS011;12319;49.204;8.116;2023-05-16T08:27:06;4.22;;;3.20;;
24163;SDS011;12319;49.204;8.116;2023-05-16T08:29:32;4.60;;;3.42;;
24163;SDS011;12319;49.204;8.116;2023-05-16T08:31:58;4.30;;;3.10;;
24163;SDS011;12319;49.204;8.116;2023-05-16T08:34:23;4.27;;;3.30;;
24163;SDS011;12319;49.204;8.116;2023-05-16T08:36:49;4.38;;;3.22;;
24163;SDS011;12319;49.204;8.116;2023-05-16T08:39:15;4.00;;;2.93;;
24163;SDS011;12319;49.204;8.116;2023-05-16T08:41:40;4.33;;;3.30;;
24163;SDS011;12319;49.204;8.116;2023-05-16T08:44:06;4.43;;;3.28;;
24163;SDS011;12319;49.204;8.116;2023-05-16T08:46:33;4.22;;;3.28;;
24163;SDS011;12319;49.204;8.116;2023-05-16T08:49:00;4.13;;;3.13;;
24163;SDS011;12319;49.204;8.116;2023-05-16T08:51:32;4.25;;;2.80;;
24163;SDS011;12319;49.204;8.116;2023-05-16T08:54:02;3.85;;;2.70;;
24163;SDS011;12319;49.204;8.116;2023-05-16T08:56:30;4.00;;;2.70;;
24163;SDS011;12319;49.204;8.116;2023-05-16T08:58:58;4.43;;;3.22;;
24163;SDS011;12319;49.204;8.116;2023-05-16T09:01:24;4.27;;;3.10;;
24163;SDS011;12319;49.204;8.116;2023-05-16T09:03:49;4.20;;;2.92;;
24163;SDS011;12319;49.204;8.116;2023-05-16T09:06:16;4.40;;;3.20;;
24163;SDS011;12319;49.204;8.116;2023-05-16T09:08:42;4.40;;;2.77;;
24163;SDS011;12319;49.204;8.116;2023-05-16T09:11:08;4.15;;;3.05;;
24163;SDS011;12319;49.204;8.116;2023-05-16T09:13:34;4.30;;;3.20;;
24163;SDS011;12319;49.204;8.116;2023-05-16T09:16:18;3.90;;;2.72;;
24163;SDS011;12319;49.204;8.116;2023-05-16T09:18:54;4.60;;;3.40;;
24163;SDS011;12319;49.204;8.116;2023-05-16T09:21:27;4.30;;;3.27;;
24163;SDS011;12319;49.204;8.116;2023-05-16T09:23:55;3.92;;;2.88;;
24163;SDS011;12319;49.204;8.116;2023-05-16T09:26:21;3.97;;;2.97;;
24163;SDS011;12319;49.204;8.116;2023-05-16T09:28:46;4.20;;;2.83;;
24163;SDS011;12319;49.204;8.116;2023-05-16T09:31:19;4.00;;;2.97;;
24163;SDS011;12319;49.204;8.116;2023-05-16T09:33:50;4.13;;;2.65;;
24163;SDS011;12319;49.204;8.116;2023-05-16T09:36:16;3.92;;;2.65;;
24163;SDS011;12319;49.204;8.116;2023-05-16T09:38:42;6.20;;;2.57;;
24163;SDS011;12319;49.204;8.116;2023-05-16T09:41:08;3.90;;;2.75;;
24163;SDS011;12319;49.204;8.116;2023-05-16T09:43:36;4.63;;;2.97;;
24163;SDS011;12319;49.204;8.116;2023-05-16T09:46:06;3.88;;;2.80;;
24163;SDS011;12319;49.204;8.116;2023-05-16T09:48:32;3.90;;;2.85;;
24163;SDS011;12319;49.204;8.116;2023-05-16T09:50:58;3.80;;;2.80;;
24163;SDS011;12319;49.204;8.116;2023-05-16T09:53:29;3.80;;;2.65;;
24163;SDS011;12319;49.204;8.116;2023-05-16T09:56:19;4.10;;;3.03;;
24163;SDS011;12319;49.204;8.116;2023-05-16T09:58:45;4.13;;;2.85;;
24163;SDS011;12319;49.204;8.116;2023-05-16T10:01:11;3.90;;;2.83;;
24163;SDS011;12319;49.204;8.116;2023-05-16T10:03:38;4.27;;;3.17;;
24163;SDS011;12319;49.204;8.116;2023-05-16T10:06:06;4.30;;;3.25;;
24163;SDS011;12319;49.204;8.116;2023-05-16T10:08:33;4.10;;;2.90;;
24163;SDS011;12319;49.204;8.116;2023-05-16T10:11:01;4.85;;;2.88;;
24163;SDS011;12319;49.204;8.116;2023-05-16T10:13:31;4.57;;;2.97;;
24163;SDS011;12319;49.204;8.116;2023-05-16T10:16:07;3.95;;;2.72;;
24163;SDS011;12319;49.204;8.116;2023-05-16T10:18:35;4.40;;;3.20;;
24163;SDS011;12319;49.204;8.116;2023-05-16T10:21:04;4.10;;;2.53;;
24163;SDS011;12319;49.204;8.116;2023-05-16T10:23:31;4.07;;;2.92;;
24163;SDS011;12319;49.204;8.116;2023-05-16T10:25:59;3.70;;;2.70;;
24163;SDS011;12319;49.204;8.116;2023-05-16T10:28:30;4.10;;;2.80;;
24163;SDS011;12319;49.204;8.116;2023-05-16T10:30:56;4.55;;;3.25;;
24163;SDS011;12319;49.204;8.116;2023-05-16T10:33:23;3.80;;;2.72;;
24163;SDS011;12319;49.204;8.116;2023-05-16T10:35:48;4.23;;;3.03;;
24163;SDS011;12319;49.204;8.116;2023-05-16T10:38:15;4.10;;;2.80;;
24163;SDS011;12319;49.204;8.116;2023-05-16T10:40:42;4.47;;;2.63;;
24163;SDS011;12319;49.204;8.116;2023-05-16T10:43:08;4.68;;;3.28;;
24163;SDS011;12319;49.204;8.116;2023-05-16T10:45:38;4.50;;;2.90;;
24163;SDS011;12319;49.204;8.116;2023-05-16T10:48:05;4.40;;;3.10;;
24163;SDS011;12319;49.204;8.116;2023-05-16T10:50:34;4.20;;;3.25;;
24163;SDS011;12319;49.204;8.116;2023-05-16T10:53:18;4.27;;;3.27;;
24163;SDS011;12319;49.204;8.116;2023-05-16T10:55:49;4.05;;;2.90;;
24163;SDS011;12319;49.204;8.116;2023-05-16T11:06:26;4.40;;;3.00;;
24163;SDS011;12319;49.204;8.116;2023-05-16T11:14:24;4.63;;;3.28;;
24163;SDS011;12319;49.204;8.116;2023-05-16T11:17:05;5.32;;;3.20;;
24163;SDS011;12319;49.204;8.116;2023-05-16T11:19:41;4.17;;;3.03;;
24163;SDS011;12319;49.204;8.116;2023-05-16T11:22:12;4.35;;;3.20;;
24163;SDS011;12319;49.204;8.116;2023-05-16T11:30:13;4.10;;;2.88;;
24163;SDS011;12319;49.204;8.116;2023-05-16T11:32:42;5.03;;;3.20;;
24163;SDS011;12319;49.204;8.116;2023-05-16T11:35:09;4.20;;;3.20;;
24163;SDS011;12319;49.204;8.116;2023-05-16T11:37:36;4.50;;;3.40;;
24163;SDS011;12319;49.204;8.116;2023-05-16T11:40:05;5.40;;;3.08;;
24163;SDS011;12319;49.204;8.116;2023-05-16T11:43:05;4.50;;;3.42;;
24163;SDS011;12319;49.204;8.116;2023-05-16T11:45:24;4.40;;;3.20;;
24163;SDS011;12319;49.204;8.116;2023-05-16T11:47:50;5.57;;;3.55;;
24163;SDS011;12319;49.204;8.116;2023-05-16T11:50:17;4.88;;;3.65;;
24163;SDS011;12319;49.204;8.116;2023-05-16T11:52:48;4.82;;;3.47;;
24163;SDS011;12319;49.204;8.116;2023-05-16T11:55:18;4.73;;;3.13;;
24163;SDS011;12319;49.204;8.116;2023-05-16T11:57:46;4.75;;;3.63;;
24163;SDS011;12319;49.204;8.116;2023-05-16T12:00:15;5.63;;;3.63;;
24163;SDS011;12319;49.204;8.116;2023-05-16T12:02:48;5.20;;;3.77;;
24163;SDS011;12319;49.204;8.116;2023-05-16T12:05:15;5.20;;;3.38;;
24163;SDS011;12319;49.204;8.116;2023-05-16T12:07:44;4.28;;;3.25;;
24163;SDS011;12319;49.204;8.116;2023-05-16T12:10:11;4.80;;;3.42;;
24163;SDS011;12319;49.204;8.116;2023-05-16T12:12:42;4.65;;;3.60;;
24163;SDS011;12319;49.204;8.116;2023-05-16T12:15:09;4.90;;;3.53;;
24163;SDS011;12319;49.204;8.116;2023-05-16T12:17:35;5.40;;;3.80;;
24163;SDS011;12319;49.204;8.116;2023-05-16T12:20:02;4.82;;;3.70;;
24163;SDS011;12319;49.204;8.116;2023-05-16T12:22:35;4.85;;;3.42;;
24163;SDS011;12319;49.204;8.116;2023-05-16T12:27:47;5.00;;;3.53;;
24163;SDS011;12319;49.204;8.116;2023-05-16T12:30:15;4.65;;;3.30;;
24163;SDS011;12319;49.204;8.116;2023-05-16T12:32:41;4.88;;;3.58;;
24163;SDS011;12319;49.204;8.116;2023-05-16T12:35:07;4.50;;;3.00;;
24163;SDS011;12319;49.204;8.116;2023-05-16T12:37:35;4.40;;;3.20;;
24163;SDS011;12319;49.204;8.116;2023-05-16T12:40:01;6.07;;;3.23;;
24163;SDS011;12319;49.204;8.116;2023-05-16T12:42:28;5.65;;;3.60;;
24163;SDS011;12319;49.204;8.116;2023-05-16T12:44:54;7.05;;;3.40;;
24163;SDS011;12319;49.204;8.116;2023-05-16T12:47:20;5.23;;;3.47;;
24163;SDS011;12319;49.204;8.116;2023-05-16T12:49:46;5.88;;;3.35;;
24163;SDS011;12319;49.204;8.116;2023-05-16T12:52:18;5.20;;;3.58;;
24163;SDS011;12319;49.204;8.116;2023-05-16T12:54:45;4.70;;;3.47;;
24163;SDS011;12319;49.204;8.116;2023-05-16T12:57:12;7.90;;;3.88;;
24163;SDS011;12319;49.204;8.116;2023-05-16T12:59:38;5.15;;;3.75;;
24163;SDS011;12319;49.204;8.116;2023-05-16T13:02:04;5.03;;;3.80;;
24163;SDS011;12319;49.204;8.116;2023-05-16T13:04:29;5.07;;;3.47;;
24163;SDS011;12319;49.204;8.116;2023-05-16T13:06:55;6.37;;;3.80;;
24163;SDS011;12319;49.204;8.116;2023-05-16T13:09:21;6.05;;;3.50;;
24163;SDS011;12319;49.204;8.116;2023-05-16T13:11:47;5.47;;;3.70;;
24163;SDS011;12319;49.204;8.116;2023-05-16T13:14:14;7.57;;;3.58;;
24163;SDS011;12319;49.204;8.116;2023-05-16T13:16:41;4.80;;;3.50;;
24163;SDS011;12319;49.204;8.116;2023-05-16T13:19:06;5.17;;;3.87;;
24163;SDS011;12319;49.204;8.116;2023-05-16T13:21:32;4.75;;;3.35;;
24163;SDS011;12319;49.204;8.116;2023-05-16T13:23:58;4.70;;;3.33;;
24163;SDS011;12319;49.204;8.116;2023-05-16T13:26:23;6.10;;;3.70;;
24163;SDS011;12319;49.204;8.116;2023-05-16T13:28:49;5.95;;;3.72;;
24163;SDS011;12319;49.204;8.116;2023-05-16T13:31:18;4.97;;;3.40;;
24163;SDS011;12319;49.204;8.116;2023-05-16T13:33:45;6.20;;;3.80;;
24163;SDS011;12319;49.204;8.116;2023-05-16T13:36:10;5.85;;;3.70;;
24163;SDS011;12319;49.204;8.116;2023-05-16T13:38:36;5.10;;;3.27;;
24163;SDS011;12319;49.204;8.116;2023-05-16T13:41:01;5.07;;;3.50;;
24163;SDS011;12319;49.204;8.116;2023-05-16T13:43:27;6.78;;;3.60;;
24163;SDS011;12319;49.204;8.116;2023-05-16T13:45:52;5.30;;;3.60;;
24163;SDS011;12319;49.204;8.116;2023-05-16T13:48:18;6.17;;;3.90;;
24163;SDS011;12319;49.204;8.116;2023-05-16T13:50:43;5.78;;;3.53;;
24163;SDS011;12319;49.204;8.116;2023-05-16T13:53:09;5.38;;;2.92;;
24163;SDS011;12319;49.204;8.116;2023-05-16T13:55:35;5.33;;;3.20;;
24163;SDS011;12319;49.204;8.116;2023-05-16T13:58:00;7.78;;;3.47;;
24163;SDS011;12319;49.204;8.116;2023-05-16T14:00:26;6.30;;;3.43;;
24163;SDS011;12319;49.204;8.116;2023-05-16T14:02:52;5.85;;;3.22;;
24163;SDS011;12319;49.204;8.116;2023-05-16T14:05:18;4.78;;;3.20;;
24163;SDS011;12319;49.204;8.116;2023-05-16T14:07:43;4.65;;;3.08;;
24163;SDS011;12319;49.204;8.116;2023-05-16T14:10:09;5.60;;;3.67;;
24163;SDS011;12319;49.204;8.116;2023-05-16T14:12:35;6.65;;;3.08;;
24163;SDS011;12319;49.204;8.116;2023-05-16T14:15:01;6.13;;;3.33;;
24163;SDS011;12319;49.204;8.116;2023-05-16T14:17:26;5.38;;;3.45;;
24163;SDS011;12319;49.204;8.116;2023-05-16T14:19:52;6.70;;;3.23;;
24163;SDS011;12319;49.204;8.116;2023-05-16T14:22:17;5.67;;;3.40;;
24163;SDS011;12319;49.204;8.116;2023-05-16T14:24:43;4.68;;;3.08;;
24163;SDS011;12319;49.204;8.116;2023-05-16T14:27:09;5.47;;;3.10;;
24163;SDS011;12319;49.204;8.116;2023-05-16T14:29:34;6.15;;;3.28;;
24163;SDS011;12319;49.204;8.116;2023-05-16T14:32:00;8.70;;;3.87;;
24163;SDS011;12319;49.204;8.116;2023-05-16T14:34:25;4.73;;;3.00;;
24163;SDS011;12319;49.204;8.116;2023-05-16T14:36:51;5.00;;;2.70;;
24163;SDS011;12319;49.204;8.116;2023-05-16T14:39:16;6.23;;;3.30;;
24163;SDS011;12319;49.204;8.116;2023-05-16T14:41:42;6.30;;;3.50;;
24163;SDS011;12319;49.204;8.116;2023-05-16T14:44:08;7.20;;;3.55;;
24163;SDS011;12319;49.204;8.116;2023-05-16T14:46:33;5.63;;;3.50;;
24163;SDS011;12319;49.204;8.116;2023-05-16T14:48:59;5.95;;;3.65;;
24163;SDS011;12319;49.204;8.116;2023-05-16T14:51:25;6.37;;;3.33;;
24163;SDS011;12319;49.204;8.116;2023-05-16T14:53:50;5.37;;;3.43;;
24163;SDS011;12319;49.204;8.116;2023-05-16T14:56:16;5.80;;;3.35;;
24163;SDS011;12319;49.204;8.116;2023-05-16T14:58:41;6.10;;;3.63;;
24163;SDS011;12319;49.204;8.116;2023-05-16T15:01:07;5.22;;;2.70;;
24163;SDS011;12319;49.204;8.116;2023-05-16T15:03:33;4.90;;;3.23;;
24163;SDS011;12319;49.204;8.116;2023-05-16T15:05:58;4.60;;;3.27;;
24163;SDS011;12319;49.204;8.116;2023-05-16T15:08:24;4.85;;;3.50;;
24163;SDS011;12319;49.204;8.116;2023-05-16T15:10:49;4.60;;;3.20;;
24163;SDS011;12319;49.204;8.116;2023-05-16T15:13:15;4.97;;;3.30;;
24163;SDS011;12319;49.204;8.116;2023-05-16T15:15:40;4.88;;;3.22;;
24163;SDS011;12319;49.204;8.116;2023-05-16T15:18:06;5.20;;;2.93;;
24163;SDS011;12319;49.204;8.116;2023-05-16T15:20:32;6.35;;;3.80;;
24163;SDS011;12319;49.204;8.116;2023-05-16T15:22:57;5.33;;;3.70;;